Time;durP1;ratioP1;P1;durP2;ratioP2;P2;SDS_P1;SDS_P2;PMS_P1;PMS_P2;Temp;Humidity;BMP_temperature;BMP_pressure;BME280_temperature;BME280_humidity;BME280_pressure;Samples;Min_cycle;Max_cycle;Signal;HPM_P1;HPM_P2
2022/05/25 00:00:06;;;;;;;24.60;13.58;;;;;;;9.64;65.35;100757.91;1758095;80;20919;-87
2022/05/25 00:02:35;;;;;;;19.90;14.43;;;;;;;9.61;65.53;100762.85;1757952;80;20884;-86
2022/05/25 00:05:04;;;;;;;18.75;12.13;;;;;;;9.59;65.52;100759.94;1758168;80;20864;-87
2022/05/25 00:07:31;;;;;;;20.60;13.60;;;;;;;9.55;65.81;100761.39;1758299;80;21243;-88
2022/05/25 00:10:00;;;;;;;20.05;13.10;;;;;;;9.54;65.91;100760.19;1758253;80;20853;-86
2022/05/25 00:12:27;;;;;;;24.32;14.60;;;;;;;9.52;65.90;100765.50;1758361;81;20948;-86
2022/05/25 00:14:55;;;;;;;22.80;14.80;;;;;;;9.49;65.98;100759.13;1758377;80;20881;-84
2022/05/25 00:17:22;;;;;;;18.60;13.60;;;;;;;9.46;65.95;100764.50;1758962;81;20971;-86
2022/05/25 00:20:01;;;;;;;19.62;13.65;;;;;;;9.44;65.94;100771.59;1758320;81;21105;-86
2022/05/25 00:22:47;;;;;;;32.45;18.25;;;;;;;9.41;65.97;100772.23;1759290;81;20892;-85
2022/05/25 00:25:17;;;;;;;26.23;18.27;;;;;;;9.37;65.91;100771.54;1758423;81;21402;-87
2022/05/25 00:27:44;;;;;;;25.32;17.12;;;;;;;9.36;65.97;100770.30;1758056;81;20897;-88
2022/05/25 00:30:12;;;;;;;26.42;17.07;;;;;;;9.33;66.05;100770.84;1758070;81;20964;-87
2022/05/25 00:32:41;;;;;;;25.10;17.67;;;;;;;9.30;66.11;100774.10;1758251;81;20965;-86
2022/05/25 00:35:10;;;;;;;23.87;17.12;;;;;;;9.28;66.19;100774.64;1758816;81;21046;-86
2022/05/25 00:37:37;;;;;;;22.13;17.20;;;;;;;9.25;66.33;100778.70;1760190;81;20955;-85
2022/05/25 00:40:08;;;;;;;25.72;18.57;;;;;;;9.25;66.52;100781.33;1758516;81;21370;-84
2022/05/25 00:42:36;;;;;;;25.95;18.82;;;;;;;9.24;66.54;100779.17;1758279;81;20892;-86
2022/05/25 00:45:04;;;;;;;31.57;18.00;;;;;;;9.25;66.63;100780.02;1758213;81;21216;-86
2022/05/25 00:47:33;;;;;;;26.45;17.20;;;;;;;9.24;66.63;100775.72;1757986;81;21386;-87
2022/05/25 00:50:00;;;;;;;28.15;18.65;;;;;;;9.24;66.63;100784.88;1758123;81;20869;-86
2022/05/25 00:52:27;;;;;;;25.00;16.70;;;;;;;9.25;66.63;100782.63;1758189;81;21516;-86
2022/05/25 00:55:00;;;;;;;24.45;16.50;;;;;;;9.26;66.48;100786.95;1758122;80;20849;-86
2022/05/25 00:57:42;;;;;;;25.12;15.88;;;;;;;9.27;66.13;100784.71;1758164;81;21118;-86
2022/05/25 01:00:14;;;;;;;28.02;16.70;;;;;;;9.29;66.39;100795.95;1757989;81;21488;-86
2022/05/25 01:02:51;;;;;;;24.30;14.40;;;;;;;9.32;66.43;100787.48;1758364;81;20853;-85
2022/05/25 01:05:26;;;;;;;23.42;14.47;;;;;;;9.32;66.19;100795.80;1758522;80;20948;-85
2022/05/25 01:08:04;;;;;;;23.22;13.88;;;;;;;9.27;66.12;100797.36;1758342;81;20873;-86
2022/05/25 01:11:04;;;;;;;19.15;12.75;;;;;;;9.25;66.32;100797.89;1754237;80;21900;-85
2022/05/25 01:13:45;;;;;;;19.00;12.70;;;;;;;9.22;66.49;100794.11;1744577;81;20925;-86
2022/05/25 01:17:00;;;;;;;21.02;13.38;;;;;;;9.23;66.54;100793.67;1744811;82;20885;-86
2022/05/25 01:19:58;;;;;;;17.98;12.85;;;;;;;9.21;66.65;100790.28;1744885;81;20907;-83
2022/05/25 01:22:47;;;;;;;21.45;12.18;;;;;;;9.17;66.45;100795.28;1744898;81;20893;-85
2022/05/25 01:25:53;;;;;;;22.65;13.32;;;;;;;9.13;66.57;100799.81;1744774;80;21091;-84
2022/05/25 01:28:40;;;;;;;23.95;13.45;;;;;;;9.08;66.74;100793.52;1744788;81;20924;-85
2022/05/25 01:31:28;;;;;;;21.45;13.53;;;;;;;9.04;66.86;100799.82;1744891;81;21000;-86
2022/05/25 01:33:58;;;;;;;21.10;14.07;;;;;;;9.01;66.84;100803.08;1738057;81;20893;-85
2022/05/25 01:36:43;;;;;;;24.77;14.65;;;;;;;8.96;66.88;100804.61;1744851;81;21331;-85
2022/05/25 01:39:16;;;;;;;23.52;14.55;;;;;;;8.94;67.00;100814.30;1745008;81;21228;-85
2022/05/25 01:42:09;;;;;;;19.35;13.45;;;;;;;8.94;67.24;100813.00;1745501;81;20984;-85
2022/05/25 01:44:51;;;;;;;23.25;13.70;;;;;;;8.93;67.23;100809.52;1745606;82;20881;-84
2022/05/25 01:47:17;;;;;;;20.72;13.45;;;;;;;8.93;67.40;100821.28;1745206;81;20984;-85
2022/05/25 01:49:53;;;;;;;22.82;13.32;;;;;;;8.91;67.67;100818.36;1734259;82;20917;-86
2022/05/25 01:52:24;;;;;;;22.45;13.80;;;;;;;8.89;67.71;100819.77;1745039;81;21814;-85
2022/05/25 01:54:58;;;;;;;22.40;13.32;;;;;;;8.89;67.81;100824.13;1745105;81;20913;-85
2022/05/25 01:57:29;;;;;;;20.80;13.32;;;;;;;8.89;67.97;100824.13;1745107;80;20889;-85
2022/05/25 01:59:56;;;;;;;21.68;13.15;;;;;;;8.89;67.97;100829.36;1744689;81;20934;-85
2022/05/25 02:05:12;;;;;;;24.67;12.82;;;;;;;8.83;67.98;100827.07;1744822;81;21204;-86
2022/05/25 02:08:03;;;;;;;27.22;13.10;;;;;;;8.83;68.09;100830.99;1734240;82;20929;-86
2022/05/25 02:10:53;;;;;;;23.52;13.28;;;;;;;8.83;68.23;100837.53;1733019;80;20980;-86
2022/05/25 02:13:47;;;;;;;25.08;13.58;;;;;;;8.84;68.35;100845.28;1758326;81;21772;-85
2022/05/25 02:16:21;;;;;;;23.52;13.78;;;;;;;8.86;68.46;100839.98;1758313;81;20848;-84
2022/05/25 02:19:17;;;;;;;18.77;13.00;;;;;;;8.85;68.50;100843.53;1758072;81;21085;-85
2022/05/25 02:22:06;;;;;;;21.35;12.03;;;;;;;8.87;68.52;100856.91;1757574;81;21346;-85
2022/05/25 02:24:39;;;;;;;17.32;11.75;;;;;;;8.85;68.53;100861.38;1757886;80;20931;-84
2022/05/25 02:27:18;;;;;;;24.43;13.40;;;;;;;8.87;68.62;100858.66;1758526;81;20865;-84
2022/05/25 02:29:49;;;;;;;21.15;11.95;;;;;;;8.87;68.66;100858.66;1758603;81;20841;-85
2022/05/25 02:32:42;;;;;;;26.23;13.70;;;;;;;8.87;68.68;100858.23;1758020;80;21163;-85
2022/05/25 02:35:09;;;;;;;20.92;13.65;;;;;;;8.88;68.64;100862.98;1758030;81;20991;-85
2022/05/25 02:37:36;;;;;;;25.70;13.25;;;;;;;8.89;68.45;100862.05;1758133;81;21326;-85
2022/05/25 02:40:06;;;;;;;25.75;14.70;;;;;;;8.90;68.37;100867.69;1757937;81;20924;-86
2022/05/25 02:42:33;;;;;;;20.17;13.30;;;;;;;8.91;68.50;100868.92;1758103;80;20873;-85
2022/05/25 02:45:01;;;;;;;27.87;14.45;;;;;;;8.92;68.34;100870.61;1758056;80;21406;-85
2022/05/25 02:47:28;;;;;;;24.55;14.28;;;;;;;8.92;68.22;100869.30;1759583;81;20975;-85
2022/05/25 02:49:55;;;;;;;25.50;14.55;;;;;;;8.93;68.17;100877.98;1760465;81;21393;-84
2022/05/25 02:52:22;;;;;;;22.58;14.85;;;;;;;8.94;68.21;100871.84;1758097;81;20885;-85
2022/05/25 02:54:50;;;;;;;22.48;14.15;;;;;;;8.96;68.34;100875.67;1758125;81;20975;-85
2022/05/25 02:57:18;;;;;;;22.90;13.50;;;;;;;9.01;68.43;100873.70;1758094;81;21134;-85
2022/05/25 02:59:46;;;;;;;27.07;14.40;;;;;;;9.05;68.42;100878.70;1758141;81;21015;-85
2022/05/25 03:02:13;;;;;;;19.25;12.23;;;;;;;9.10;68.57;100876.70;1758039;80;20884;-84
2022/05/25 03:04:40;;;;;;;20.08;13.28;;;;;;;9.17;68.66;100879.02;1758008;81;20971;-85
2022/05/25 03:07:07;;;;;;;27.25;14.15;;;;;;;9.23;68.71;100884.78;1758232;81;21015;-84
2022/05/25 03:09:36;;;;;;;21.73;11.08;;;;;;;9.29;68.78;100887.10;1759276;80;21807;-83
2022/05/25 03:12:04;;;;;;;19.30;12.90;;;;;;;9.37;68.77;100888.02;1758190;81;21387;-85
2022/05/25 03:14:32;;;;;;;17.95;10.88;;;;;;;9.45;68.80;100887.61;1758122;81;20852;-86
2022/05/25 03:17:04;;;;;;;22.77;11.53;;;;;;;9.52;68.83;100887.23;1758145;81;21464;-86
2022/05/25 03:19:27;;;;;;;23.22;12.70;;;;;;;9.62;68.75;100896.75;1757700;81;21315;-86
2022/05/25 03:21:54;;;;;;;19.17;11.43;;;;;;;9.71;68.86;100891.04;1758184;81;21114;-85
2022/05/25 03:24:21;;;;;;;22.22;10.95;;;;;;;9.81;68.75;100894.05;1758160;80;21370;-86
2022/05/25 03:26:48;;;;;;;15.23;10.80;;;;;;;9.92;68.50;100898.72;1758225;81;20944;-85
2022/05/25 03:29:17;;;;;;;20.97;10.82;;;;;;;10.03;68.33;100900.30;1758117;81;20924;-86
2022/05/25 03:31:43;;;;;;;20.15;10.50;;;;;;;10.14;67.69;100901.89;1758334;81;20857;-87
2022/05/25 03:34:10;;;;;;;17.67;9.65;;;;;;;10.28;67.09;100909.00;1758243;81;21211;-86
2022/05/25 03:36:37;;;;;;;13.68;8.95;;;;;;;10.40;66.52;100906.67;1758369;81;20971;-87
2022/05/25 03:39:08;;;;;;;14.40;9.40;;;;;;;10.51;66.24;100902.52;1758340;81;20892;-86
2022/05/25 03:41:36;;;;;;;17.12;9.93;;;;;;;10.66;65.80;100906.55;1758698;80;20924;-86
2022/05/25 03:44:03;;;;;;;20.35;10.48;;;;;;;10.79;65.29;100913.64;1758473;81;20876;-87
2022/05/25 03:46:32;;;;;;;21.10;11.25;;;;;;;10.94;64.70;100913.25;1758085;81;21797;-86
2022/05/25 03:48:58;;;;;;;14.75;9.18;;;;;;;11.08;64.63;100912.93;1758056;81;20939;-86
2022/05/25 03:51:28;;;;;;;23.90;10.30;;;;;;;11.23;64.23;100913.36;1759338;80;20919;-84
2022/05/25 03:53:54;;;;;;;19.90;9.68;;;;;;;11.38;63.45;100917.72;1760750;81;21416;-84
2022/05/25 03:56:21;;;;;;;16.32;10.03;;;;;;;11.55;62.79;100910.62;1760208;81;20932;-85
2022/05/25 03:58:48;;;;;;;18.35;10.68;;;;;;;11.72;63.25;100920.12;1758605;81;21105;-86
2022/05/25 04:01:15;;;;;;;20.77;12.15;;;;;;;11.89;62.71;100924.38;1771283;78;20931;-86
2022/05/25 04:03:42;;;;;;;21.60;9.85;;;;;;;12.08;62.84;100921.49;1790369;78;20974;-85
2022/05/25 04:06:09;;;;;;;19.57;10.90;;;;;;;12.26;62.66;100928.23;1790250;79;20966;-85
2022/05/25 04:08:36;;;;;;;17.77;10.20;;;;;;;12.46;62.19;100923.52;1790017;80;20872;-86
2022/05/25 04:11:04;;;;;;;19.82;10.90;;;;;;;12.69;61.80;100923.36;1789683;80;21137;-87
2022/05/25 04:13:31;;;;;;;19.37;9.78;;;;;;;12.95;61.51;100925.16;1786936;80;20923;-86
2022/05/25 04:15:57;;;;;;;15.58;9.83;;;;;;;13.40;60.52;100936.26;1786725;80;21172;-87
2022/05/25 04:18:25;;;;;;;12.00;7.92;;;;;;;14.04;59.37;100934.16;1786906;80;21345;-85
2022/05/25 04:20:52;;;;;;;14.68;6.70;;;;;;;14.77;57.29;100932.07;1786866;79;20904;-86
2022/05/25 04:23:24;;;;;;;10.25;7.75;;;;;;;15.54;55.22;100936.95;1758398;80;20962;-86
2022/05/25 04:25:50;;;;;;;9.20;5.90;;;;;;;16.31;53.38;100935.00;1786989;79;20907;-86
2022/05/25 04:28:18;;;;;;;8.43;5.70;;;;;;;16.99;51.09;100933.93;1786959;80;20990;-86
2022/05/25 04:30:45;;;;;;;8.88;5.72;;;;;;;17.66;50.19;100934.56;1787135;79;20880;-87
2022/05/25 04:33:12;;;;;;;7.95;5.00;;;;;;;18.30;48.27;100936.17;1787505;80;20828;-84
2022/05/25 04:35:41;;;;;;;7.50;4.70;;;;;;;18.92;46.79;100942.68;1787271;80;21125;-86
2022/05/25 04:38:08;;;;;;;4.60;3.80;;;;;;;19.50;45.75;100943.16;1786855;80;21010;-85
2022/05/25 04:40:40;;;;;;;7.80;4.28;;;;;;;20.00;44.36;100937.12;1787075;80;20872;-86
2022/05/25 04:43:12;;;;;;;8.58;4.25;;;;;;;20.48;43.39;100939.23;1786850;80;20868;-87
2022/05/25 04:45:41;;;;;;;;;;;;;;;20.94;41.96;100940.07;1789353;80;20982;-85
2022/05/25 04:48:08;;;;;;;4.15;2.47;;;;;;;21.33;40.92;100936.59;1786842;80;20738;-86
2022/05/25 04:50:41;;;;;;;8.00;2.75;;;;;;;21.69;39.98;100939.72;1786817;80;20871;-86
2022/05/25 04:53:11;;;;;;;3.92;2.60;;;;;;;22.06;39.14;100939.95;1787090;80;20868;-85
2022/05/25 04:58:39;;;;;;;2.90;2.40;;;;;;;22.67;37.55;100940.70;1787620;80;20863;-85
2022/05/25 05:01:09;;;;;;;13.70;3.22;;;;;;;23.03;36.64;100935.94;1789385;80;21224;-86
2022/05/25 05:03:36;;;;;;;4.20;2.60;;;;;;;23.36;36.45;100939.47;1787076;80;20880;-86
2022/05/25 05:06:05;;;;;;;5.87;2.15;;;;;;;23.66;35.63;100935.77;1786894;80;21365;-85
2022/05/25 05:08:34;;;;;;;6.10;2.58;;;;;;;23.99;35.18;100929.87;1786643;79;20927;-86
2022/05/25 05:11:11;;;;;;;4.35;1.82;;;;;;;24.32;34.56;100932.91;1786864;80;20955;-86
2022/05/25 05:13:40;;;;;;;7.60;2.47;;;;;;;24.64;33.96;100929.27;1752807;81;21146;-87
2022/05/25 05:16:14;;;;;;;2.52;2.10;;;;;;;24.91;33.67;100926.57;1754027;82;21365;-86
2022/05/25 05:18:42;;;;;;;4.33;2.02;;;;;;;25.25;32.83;100933.90;1753136;81;20990;-86
2022/05/25 05:21:20;;;;;;;5.53;2.40;;;;;;;25.54;32.06;100925.89;1752368;82;20946;-86
2022/05/25 05:23:47;;;;;;;2.52;1.80;;;;;;;25.84;31.40;100929.45;1753113;82;21507;-85
2022/05/25 05:26:14;;;;;;;4.42;2.02;;;;;;;26.12;30.72;100936.89;1753187;80;21130;-86
2022/05/25 05:28:41;;;;;;;2.42;2.12;;;;;;;26.34;29.96;100931.07;1753276;82;21456;-86
2022/05/25 05:31:08;;;;;;;4.50;1.92;;;;;;;26.54;29.72;100939.89;1753254;82;20946;-85
2022/05/25 05:33:36;;;;;;;6.30;1.75;;;;;;;26.77;29.29;100943.30;1753031;82;20915;-86
2022/05/25 05:36:16;;;;;;;2.85;1.60;;;;;;;26.98;28.83;100943.81;1753533;82;20903;-87
2022/05/25 05:38:51;;;;;;;2.98;1.67;;;;;;;27.14;28.81;100941.89;1752888;82;21203;-84
2022/05/25 05:41:20;;;;;;;3.58;1.90;;;;;;;27.37;28.47;100941.20;1753019;80;20963;-86
2022/05/25 05:43:47;;;;;;;4.35;2.40;;;;;;;27.55;28.35;100935.86;1753003;82;20891;-86
2022/05/25 05:46:14;;;;;;;3.70;1.82;;;;;;;27.74;28.09;100940.52;1753028;82;20907;-85
2022/05/25 05:48:42;;;;;;;4.17;2.30;;;;;;;27.95;28.23;100941.02;1753081;82;20994;-85
2022/05/25 05:51:11;;;;;;;2.90;2.00;;;;;;;28.13;28.00;100932.92;1752983;82;21222;-85
2022/05/25 05:53:40;;;;;;;1.98;1.77;;;;;;;28.22;27.69;100935.75;1726082;80;21041;-85
2022/05/25 05:56:06;;;;;;;2.40;1.50;;;;;;;28.40;27.54;100940.08;1753568;82;20879;-85
2022/05/25 05:58:33;;;;;;;3.42;1.67;;;;;;;28.61;27.24;100942.35;1754887;82;20908;-85
2022/05/25 06:01:00;;;;;;;2.52;1.60;;;;;;;28.77;26.97;100950.09;1753245;82;21034;-86
2022/05/25 06:03:28;;;;;;;4.35;1.72;;;;;;;28.91;27.09;100951.77;1753019;80;21188;-85
2022/05/25 06:05:56;;;;;;;5.62;1.47;;;;;;;29.13;26.80;100952.98;1754399;82;20895;-86
2022/05/25 06:08:26;;;;;;;6.08;1.65;;;;;;;29.37;26.15;100950.69;1754178;80;20935;-83
2022/05/25 06:10:54;;;;;;;3.58;1.85;;;;;;;29.56;25.86;100953.91;1753092;82;21353;-84
2022/05/25 06:13:22;;;;;;;5.95;2.10;;;;;;;29.77;25.52;100956.09;1739582;80;20919;-83
2022/05/25 06:21:24;;;;;;;2.42;1.47;;;;;;;30.22;24.73;100958.38;1780933;80;20983;-85
2022/05/25 06:23:52;;;;;;;1.57;1.35;;;;;;;30.46;24.43;100951.44;1780764;80;20932;-84
2022/05/25 06:26:18;;;;;;;2.60;1.30;;;;;;;30.60;24.52;100956.80;1780862;80;20931;-84
2022/05/25 06:28:45;;;;;;;2.90;1.55;;;;;;;30.69;23.74;100950.89;1780883;80;21102;-85
2022/05/25 06:31:12;;;;;;;2.37;1.62;;;;;;;30.82;24.00;100956.77;1780754;80;20900;-85
2022/05/25 06:33:39;;;;;;;2.35;1.60;;;;;;;31.04;24.19;100958.63;1781202;79;20923;-85
2022/05/25 06:36:20;;;;;;;2.42;1.82;;;;;;;31.11;24.17;100962.64;1781046;79;20903;-85
2022/05/25 06:38:48;;;;;;;4.40;1.30;;;;;;;31.15;23.66;100965.23;1781822;80;21365;-82
2022/05/25 06:41:15;;;;;;;2.75;1.60;;;;;;;31.31;23.76;100971.45;1781218;80;21228;-85
2022/05/25 06:43:42;;;;;;;2.77;1.40;;;;;;;31.53;23.79;100964.32;1780937;80;20959;-85
2022/05/25 06:46:11;;;;;;;2.52;1.35;;;;;;;31.73;23.13;100969.02;1781078;80;20896;-85
2022/05/25 06:48:39;;;;;;;4.70;1.17;;;;;;;31.88;22.69;100974.06;1781128;80;21026;-85
2022/05/25 06:51:17;;;;;;;4.72;1.25;;;;;;;32.08;22.41;100971.16;1781147;79;20899;-85
2022/05/25 06:53:49;;;;;;;3.45;1.30;;;;;;;32.21;22.12;100981.05;1780988;80;21283;-86
2022/05/25 06:56:17;;;;;;;3.20;1.37;;;;;;;32.31;20.99;100975.10;1781570;79;20904;-84
2022/05/25 06:58:43;;;;;;;2.98;1.05;;;;;;;32.36;21.00;100984.20;1781181;79;20872;-88
2022/05/25 07:01:10;;;;;;;1.67;0.85;;;;;;;32.43;20.60;100978.16;1781080;79;20931;-86
2022/05/25 07:03:41;;;;;;;6.58;6.03;;;;;;;32.56;20.24;100981.80;1781165;79;20887;-85
2022/05/25 07:06:08;;;;;;;1.95;1.20;;;;;;;32.47;20.67;100977.19;1780777;79;21151;-86
2022/05/25 07:08:36;;;;;;;5.03;3.75;;;;;;;32.44;20.56;100979.01;1751755;80;20923;-85
2022/05/25 07:11:03;;;;;;;5.03;1.75;;;;;;;32.46;20.08;100975.55;1782766;80;20868;-83
2022/05/25 07:13:30;;;;;;;3.30;1.30;;;;;;;32.39;20.72;100972.91;1787397;80;20962;-86
2022/05/25 07:16:01;;;;;;;1.05;0.90;;;;;;;32.47;20.69;100972.29;1787861;80;20872;-87
2022/05/25 07:18:28;;;;;;;6.22;1.40;;;;;;;32.61;20.67;100973.25;1786558;79;21942;-90
2022/05/25 07:21:11;;;;;;;2.25;0.90;;;;;;;32.78;19.99;100969.91;1787277;79;20852;-86
2022/05/25 07:23:39;;;;;;;2.15;0.90;;;;;;;32.93;19.95;100972.18;1787204;80;20939;-86
2022/05/25 07:26:07;;;;;;;1.57;0.90;;;;;;;33.07;19.43;100966.89;1786927;79;21325;-88
2022/05/25 07:28:35;;;;;;;1.47;1.07;;;;;;;33.27;19.64;100973.37;1786994;80;20872;-88
2022/05/25 07:31:07;;;;;;;3.17;0.90;;;;;;;33.49;19.21;100973.63;1758899;80;21780;-88
2022/05/25 07:33:35;;;;;;;2.30;0.80;;;;;;;33.68;19.01;100972.99;1786973;80;20867;-88
2022/05/25 07:36:02;;;;;;;1.15;0.62;;;;;;;33.82;18.82;100968.98;1787000;79;20884;-88
2022/05/25 07:38:29;;;;;;;2.47;0.75;;;;;;;33.92;17.86;100969.72;1787062;79;20963;-85
2022/05/25 07:40:56;;;;;;;6.90;3.90;;;;;;;33.92;17.93;100977.89;1786898;79;20919;-87
2022/05/25 07:43:23;;;;;;;2.22;1.72;;;;;;;33.93;17.77;100976.84;1786934;79;21141;-87
2022/05/25 07:45:51;;;;;;;2.35;0.93;;;;;;;33.80;17.99;100971.11;1786799;80;20915;-88
2022/05/25 07:48:18;;;;;;;1.65;1.55;;;;;;;33.79;17.78;100974.05;1787095;80;20975;-88
2022/05/25 07:50:46;;;;;;;1.57;0.80;;;;;;;33.94;17.16;100976.30;1787309;80;20892;-87
2022/05/25 07:56:01;;;;;;;2.80;0.70;;;;;;;34.05;17.24;100987.70;1786871;80;21352;-87
2022/05/25 07:58:31;;;;;;;3.95;0.60;;;;;;;34.21;17.30;100986.98;1786903;80;21405;-85
2022/05/25 08:01:03;;;;;;;5.92;0.85;;;;;;;34.36;16.96;100987.83;1787657;80;21077;-85
2022/05/25 08:06:15;;;;;;;1.37;0.70;;;;;;;34.54;16.96;100990.09;1787019;79;20844;-86
2022/05/25 08:08:44;;;;;;;2.20;0.68;;;;;;;34.71;17.22;100986.91;1786713;79;21241;-86
2022/05/25 08:11:14;;;;;;;1.10;0.50;;;;;;;34.81;17.18;100983.00;1786917;80;20853;-86
2022/05/25 08:13:45;;;;;;;2.67;0.60;;;;;;;34.95;16.59;100985.41;1786826;80;20927;-87
2022/05/25 08:16:12;;;;;;;1.40;0.50;;;;;;;35.11;16.71;100988.72;1786943;80;21424;-86
2022/05/25 08:18:39;;;;;;;0.68;0.57;;;;;;;35.21;15.97;100990.27;1787338;79;20907;-87
2022/05/25 08:21:06;;;;;;;5.92;2.45;;;;;;;35.26;16.12;100996.34;1787930;80;21124;-87
2022/05/25 08:23:33;;;;;;;9.70;8.15;;;;;;;35.16;15.94;100988.01;1789883;80;20864;-86
2022/05/25 08:26:00;;;;;;;4.33;2.83;;;;;;;35.06;15.84;100992.19;1788596;80;21471;-86
2022/05/25 08:28:26;;;;;;;3.65;3.35;;;;;;;34.96;16.02;100992.54;1787927;79;20908;-87
2022/05/25 08:30:55;;;;;;;2.70;0.98;;;;;;;34.91;16.33;100985.09;1786754;80;21157;-87
2022/05/25 08:33:23;;;;;;;2.60;0.85;;;;;;;34.87;16.13;100998.92;1786916;79;21859;-87
2022/05/25 08:35:50;;;;;;;4.37;0.90;;;;;;;34.53;16.86;100997.44;1786917;80;20974;-88
2022/05/25 08:38:21;;;;;;;1.05;0.75;;;;;;;34.13;16.74;100996.90;1786763;79;20955;-87
2022/05/25 08:40:46;;;;;;;2.55;0.82;;;;;;;33.56;16.96;100998.81;1786463;80;20892;-89
2022/05/25 08:43:20;;;;;;;3.10;0.80;;;;;;;33.17;17.16;100998.42;1733804;80;20931;-87
2022/05/25 08:45:52;;;;;;;2.25;1.10;;;;;;;33.01;17.93;101003.93;1787518;80;21256;-88
2022/05/25 08:48:20;;;;;;;1.30;0.75;;;;;;;32.97;18.32;101000.55;1786960;80;20986;-87
2022/05/25 08:50:54;;;;;;;5.97;1.07;;;;;;;33.06;18.59;100997.83;1786961;80;20876;-87
2022/05/25 08:53:22;;;;;;;2.02;1.05;;;;;;;33.28;19.00;101000.02;1786810;80;20907;-85
2022/05/25 08:55:57;;;;;;;3.75;0.50;;;;;;;33.58;18.75;101000.80;1786841;80;21037;-88
2022/05/25 08:58:27;;;;;;;1.70;0.55;;;;;;;33.75;17.67;101004.16;1786909;80;21113;-87
2022/05/25 09:00:54;;;;;;;2.40;0.85;;;;;;;33.75;17.72;101006.87;1786633;79;20914;-85
2022/05/25 09:03:47;;;;;;;1.45;0.80;;;;;;;33.87;17.79;100995.47;1786748;79;21424;-87
2022/05/25 09:06:38;;;;;;;2.15;0.72;;;;;;;33.97;17.74;101004.38;1770420;81;21354;-85
2022/05/25 09:09:27;;;;;;;3.08;0.80;;;;;;;34.15;17.47;101000.72;1771642;80;20877;-85
2022/05/25 09:12:00;;;;;;;3.22;0.82;;;;;;;34.23;17.22;100994.91;1772799;81;21143;-85
2022/05/25 09:14:44;;;;;;;7.10;1.07;;;;;;;34.36;17.44;100993.28;1767138;80;20921;-84
2022/05/25 09:17:23;;;;;;;3.35;1.22;;;;;;;34.53;17.33;100996.08;1764467;81;20877;-85
2022/05/25 09:19:50;;;;;;;1.02;0.70;;;;;;;34.65;16.82;100994.16;1765405;81;20987;-87
2022/05/25 09:22:22;;;;;;;3.42;0.68;;;;;;;34.60;16.84;100999.48;1765655;81;21000;-86
2022/05/25 09:24:49;;;;;;;3.80;0.80;;;;;;;34.58;16.67;101000.80;1768409;79;21166;-85
2022/05/25 09:27:16;;;;;;;0.80;0.62;;;;;;;34.55;16.88;101002.63;1767287;81;20917;-88
2022/05/25 09:29:44;;;;;;;1.40;0.93;;;;;;;34.41;16.86;101006.17;1765792;81;20909;-86
2022/05/25 09:32:37;;;;;;;2.95;1.02;;;;;;;34.35;16.53;101001.17;1765407;80;20913;-85
2022/05/25 09:35:19;;;;;;;0.78;0.50;;;;;;;34.29;16.12;100997.22;1758653;81;20893;-86
2022/05/25 09:38:00;;;;;;;2.72;0.78;;;;;;;34.29;16.23;101002.13;1765113;81;21747;-87
2022/05/25 09:40:35;;;;;;;0.75;0.72;;;;;;;34.38;16.46;101004.77;1764899;81;20865;-85
2022/05/25 09:43:05;;;;;;;1.10;0.90;;;;;;;34.47;16.09;101001.12;1772323;80;20939;-86
2022/05/25 09:45:53;;;;;;;1.65;0.70;;;;;;;34.58;15.80;101006.25;1781102;80;20911;-85
2022/05/25 09:48:29;;;;;;;2.75;0.98;;;;;;;34.73;15.58;101004.36;1781003;79;20986;-87
2022/05/25 09:51:07;;;;;;;3.12;0.80;;;;;;;34.79;15.36;101006.94;1781067;80;21748;-86
2022/05/25 09:53:42;;;;;;;2.45;1.40;;;;;;;34.83;15.22;101004.56;1780917;80;20828;-87
2022/05/25 09:56:48;;;;;;;1.30;0.88;;;;;;;34.94;15.84;101000.95;1779791;80;20982;-87
2022/05/25 09:59:21;;;;;;;2.25;0.60;;;;;;;35.00;15.22;101001.34;1780516;80;20864;-87
2022/05/25 10:01:48;;;;;;;3.75;1.40;;;;;;;35.04;15.14;100997.05;1781155;80;20907;-86
2022/05/25 10:04:51;;;;;;;2.52;1.00;;;;;;;35.13;15.50;100998.88;1781004;79;21730;-87
2022/05/25 10:07:20;;;;;;;3.08;1.07;;;;;;;35.01;15.25;101003.52;1779057;80;20891;-87
2022/05/25 10:09:50;;;;;;;4.05;1.30;;;;;;;34.88;15.76;100995.96;1781133;80;21337;-86
2022/05/25 10:12:29;;;;;;;1.85;1.05;;;;;;;34.99;15.77;100994.22;1780946;80;20923;-86
2022/05/25 10:15:00;;;;;;;2.50;1.50;;;;;;;35.06;15.04;100994.91;1780510;80;20919;-85
2022/05/25 10:17:39;;;;;;;2.73;1.27;;;;;;;35.09;14.74;100986.23;1780489;80;21137;-86
2022/05/25 10:20:24;;;;;;;1.67;1.57;;;;;;;35.23;14.90;100991.39;1780861;80;21143;-86
2022/05/25 10:23:04;;;;;;;1.02;0.82;;;;;;;35.31;15.21;100986.90;1780952;80;20916;-87
2022/05/25 10:29:02;;;;;;;3.50;1.45;;;;;;;35.22;15.20;100981.57;1798957;79;22609;-84
2022/05/25 10:37:15;;;;;;;4.15;3.00;;;;;;;34.09;15.69;100973.91;1758482;80;20975;-86
2022/05/25 10:39:56;;;;;;;5.35;2.98;;;;;;;33.76;15.37;100974.00;1758725;80;20884;-86
2022/05/25 10:42:45;;;;;;;3.00;0.90;;;;;;;33.53;15.97;100972.09;1758719;81;20853;-86
2022/05/25 10:45:20;;;;;;;2.90;1.35;;;;;;;33.25;15.88;100978.20;1758513;80;20845;-86
2022/05/25 10:47:55;;;;;;;2.70;0.80;;;;;;;33.16;15.98;100973.64;1758650;81;21444;-86
2022/05/25 10:50:45;;;;;;;1.37;0.60;;;;;;;33.31;16.32;100979.17;1758817;80;21089;-85
2022/05/25 10:53:41;;;;;;;2.98;0.72;;;;;;;33.43;16.30;100972.66;1758367;80;20857;-86
2022/05/25 10:56:37;;;;;;;3.45;0.85;;;;;;;33.53;16.10;100970.73;1758344;80;20943;-86
2022/05/25 10:59:23;;;;;;;2.62;1.30;;;;;;;33.54;16.18;100968.30;1723697;80;20876;-86
2022/05/25 11:02:29;;;;;;;1.80;0.75;;;;;;;33.60;16.98;100972.02;1758558;80;21888;-85
2022/05/25 11:05:32;;;;;;;2.05;1.07;;;;;;;33.55;16.66;100970.48;1758130;80;20990;-86
2022/05/25 11:08:09;;;;;;;1.05;0.90;;;;;;;33.44;17.35;100968.08;1758617;80;26351;-87
2022/05/25 11:10:49;;;;;;;2.20;1.22;;;;;;;33.55;17.25;100963.67;1712264;81;20994;-86
2022/05/25 11:13:43;;;;;;;2.08;1.32;;;;;;;33.62;16.56;100961.72;1758487;80;20964;-86
2022/05/25 11:16:36;;;;;;;1.40;0.93;;;;;;;33.56;16.43;100955.30;1758577;80;21099;-86
2022/05/25 11:19:48;;;;;;;1.07;1.00;;;;;;;33.30;16.95;100959.30;1758358;81;20885;-87
2022/05/25 11:22:52;;;;;;;4.70;1.25;;;;;;;33.01;17.47;100963.16;1758384;80;20876;-87
2022/05/25 11:25:46;;;;;;;1.92;1.22;;;;;;;32.63;17.26;100964.34;1758401;81;21500;-87
2022/05/25 11:28:19;;;;;;;1.72;1.32;;;;;;;32.37;17.94;100964.16;1668198;84;21577;-86
2022/05/25 11:31:01;;;;;;;3.70;1.17;;;;;;;32.19;18.00;100973.66;1684457;84;21845;-86
2022/05/25 11:33:45;;;;;;;5.12;1.62;;;;;;;32.05;17.65;100966.20;1684414;85;21519;-85
2022/05/25 11:36:40;;;;;;;2.15;1.57;;;;;;;31.88;17.48;100967.81;1686746;85;20955;-85
2022/05/25 11:39:36;;;;;;;1.15;0.95;;;;;;;31.53;18.13;100966.50;1685562;84;20986;-84
2022/05/25 11:42:54;;;;;;;2.27;0.80;;;;;;;31.05;18.70;100964.34;1684416;85;20943;-87
2022/05/25 11:45:41;;;;;;;2.27;0.72;;;;;;;30.42;19.14;100969.16;1683827;84;21204;-87
2022/05/25 11:48:19;;;;;;;4.65;0.88;;;;;;;29.82;19.24;100969.30;1683690;83;21500;-86
2022/05/25 11:51:25;;;;;;;2.95;1.32;;;;;;;29.54;19.53;100965.45;1683773;83;21111;-85
2022/05/25 11:54:18;;;;;;;32.48;29.30;;;;;;;29.30;19.71;100963.70;1683668;84;20982;-88
2022/05/25 11:57:12;;;;;;;3.00;2.50;;;;;;;29.00;19.65;100961.04;1683887;84;21346;-87
2022/05/25 12:00:08;;;;;;;;;;;;;;;28.73;19.33;100960.45;1686295;84;21365;-86
2022/05/25 12:03:05;;;;;;;3.95;2.40;;;;;;;28.45;20.25;100955.13;1684792;84;20070;-86
2022/05/25 12:06:17;;;;;;;4.42;2.02;;;;;;;28.24;20.62;100957.97;1709190;82;20880;-86
2022/05/25 12:09:10;;;;;;;5.70;2.25;;;;;;;28.05;20.50;100950.08;1696481;82;20875;-85
2022/05/25 12:12:15;;;;;;;4.37;2.60;;;;;;;27.89;20.52;100956.63;1720433;83;21021;-86
2022/05/25 12:15:06;;;;;;;3.00;2.15;;;;;;;27.81;21.02;100956.73;1720565;82;21141;-85
2022/05/25 12:18:03;;;;;;;3.62;2.70;;;;;;;27.69;20.68;100959.98;1720528;83;20926;-86
2022/05/25 12:21:13;;;;;;;3.12;2.70;;;;;;;27.53;20.47;100957.59;1721120;82;20923;-85